Time;durP1;ratioP1;P1;durP2;ratioP2;P2;SDS_P1;SDS_P2;PMS_P1;PMS_P2;Temp;Humidity;BMP_temperature;BMP_pressure;BME280_temperature;BME280_humidity;BME280_pressure;Samples;Min_cycle;Max_cycle;Signal;HPM_P1;HPM_P2
2022/01/08 00:00:01;;;;;;;7.55;3.95;;;6.20;44.10;;;;;;5098195;28;20164;-48
2022/01/08 00:02:28;;;;;;;8.70;2.72;;;6.10;44.20;;;;;;5099017;28;20163;-48
2022/01/08 00:04:55;;;;;;;4.72;2.97;;;6.10;44.10;;;;;;5098893;28;20199;-48
2022/01/08 00:07:23;;;;;;;4.72;2.55;;;6.10;44.10;;;;;;5097985;28;20229;-48
2022/01/08 00:09:50;;;;;;;6.03;3.55;;;6.00;44.10;;;;;;5098797;28;20254;-48
2022/01/08 00:12:18;;;;;;;11.88;3.03;;;6.00;44.80;;;;;;5098764;28;20179;-48
2022/01/08 00:14:46;;;;;;;6.97;4.05;;;6.00;44.20;;;;;;5098033;28;20188;-49
2022/01/08 00:17:13;;;;;;;11.15;3.08;;;6.00;44.20;;;;;;5098787;28;20505;-48
2022/01/08 00:19:40;;;;;;;4.40;2.95;;;6.00;44.30;;;;;;5097730;28;20247;-48
2022/01/08 00:22:08;;;;;;;9.18;5.05;;;6.00;44.50;;;;;;5098496;28;20462;-48
2022/01/08 00:24:36;;;;;;;6.15;3.38;;;6.00;44.70;;;;;;5097647;28;20179;-48
2022/01/08 00:27:04;;;;;;;5.90;2.47;;;6.00;44.80;;;;;;5098546;28;20299;-48
2022/01/08 00:29:31;;;;;;;4.88;2.90;;;6.00;44.80;;;;;;5098508;28;20179;-47
2022/01/08 00:31:59;;;;;;;3.38;2.13;;;6.00;44.90;;;;;;5098473;28;20597;-48
2022/01/08 00:34:27;;;;;;;3.78;2.53;;;6.00;44.90;;;;;;5097354;28;20241;-49
2022/01/08 00:36:54;;;;;;;4.82;2.33;;;6.00;44.90;;;;;;5097593;28;20243;-47
2022/01/08 00:39:21;;;;;;;7.55;3.33;;;6.00;44.80;;;;;;5098195;28;20175;-48
2022/01/08 00:41:48;;;;;;;3.45;2.40;;;6.00;44.80;;;;;;5097459;28;20164;-49
2022/01/08 00:44:18;;;;;;;12.02;4.43;;;6.00;44.90;;;;;;5080525;28;20622;-48
2022/01/08 00:46:45;;;;;;;7.53;3.42;;;6.00;44.70;;;;;;5097745;28;20650;-48
2022/01/08 00:49:12;;;;;;;2.85;1.92;;;6.00;44.70;;;;;;5097332;28;20175;-47
2022/01/08 00:51:40;;;;;;;6.60;3.90;;;6.00;44.50;;;;;;5098241;28;20489;-48
2022/01/08 00:54:07;;;;;;;5.65;1.77;;;6.10;44.60;;;;;;5097853;28;20641;-48
2022/01/08 00:56:35;;;;;;;6.55;3.17;;;6.10;44.50;;;;;;5098003;28;20164;-48
2022/01/08 00:59:04;;;;;;;4.95;2.30;;;6.10;44.40;;;;;;5096975;28;20171;-47
2022/01/08 01:01:32;;;;;;;3.00;2.30;;;6.10;44.30;;;;;;5097079;28;20172;-49
2022/01/08 01:03:59;;;;;;;2.75;1.92;;;6.10;44.30;;;;;;5097979;28;20184;-48
2022/01/08 01:06:27;;;;;;;3.15;2.10;;;6.10;44.30;;;;;;5097682;28;20609;-47
2022/01/08 01:08:54;;;;;;;3.33;1.85;;;6.10;44.40;;;;;;5096847;28;20195;-47
2022/01/08 01:11:21;;;;;;;3.63;2.55;;;6.10;44.40;;;;;;5097733;28;20187;-48
2022/01/08 01:13:48;;;;;;;5.28;3.03;;;6.20;44.60;;;;;;5097692;28;20677;-47
2022/01/08 01:16:16;;;;;;;7.50;2.70;;;6.10;44.50;;;;;;5097533;28;20171;-47
2022/01/08 01:18:43;;;;;;;6.38;3.97;;;6.10;44.50;;;;;;5097451;28;20493;-48
2022/01/08 01:21:11;;;;;;;3.20;2.35;;;6.10;44.60;;;;;;5097467;28;20302;-48
2022/01/08 01:23:42;;;;;;;4.43;2.28;;;6.20;44.50;;;;;;5096776;28;20497;-49
2022/01/08 01:26:15;;;;;;;5.55;3.20;;;6.20;44.60;;;;;;5096449;28;20232;-48
2022/01/08 01:28:56;;;;;;;8.40;3.22;;;6.10;44.50;;;;;;5096615;28;20320;-48
2022/01/08 01:42:50;;;;;;;9.18;2.50;;;6.00;44.10;;;;;;5096762;28;20663;-47
2022/01/08 01:47:58;;;;;;;4.97;2.85;;;5.90;44.10;;;;;;5096661;28;20223;-48
2022/01/08 01:50:25;;;;;;;8.60;2.55;;;5.90;44.20;;;;;;5096888;28;20255;-49
2022/01/08 01:52:53;;;;;;;5.22;2.13;;;5.90;44.10;;;;;;5096820;28;20263;-49
2022/01/08 01:55:20;;;;;;;3.60;1.75;;;5.90;44.10;;;;;;5096812;28;20686;-48
2022/01/08 01:57:48;;;;;;;3.60;2.20;;;5.90;44.10;;;;;;5096884;28;20175;-48
2022/01/08 02:00:16;;;;;;;2.78;1.33;;;5.80;44.00;;;;;;5096036;28;20593;-47
2022/01/08 02:02:43;;;;;;;7.53;2.33;;;5.80;43.90;;;;;;5096860;28;20636;-47
2022/01/08 02:05:10;;;;;;;2.10;1.20;;;5.80;43.90;;;;;;5096887;28;20642;-47
2022/01/08 02:07:38;;;;;;;1.70;1.15;;;5.70;43.90;;;;;;5096629;28;20168;-48
2022/01/08 02:10:05;;;;;;;2.00;1.77;;;5.60;44.20;;;;;;5096501;28;20285;-48
2022/01/08 02:12:34;;;;;;;2.22;1.20;;;5.60;44.20;;;;;;5095754;28;20189;-48
2022/01/08 02:15:02;;;;;;;2.47;1.42;;;5.70;44.20;;;;;;5095402;28;20220;-48
2022/01/08 02:17:29;;;;;;;1.92;1.00;;;5.50;44.50;;;;;;5079103;28;20225;-48
2022/01/08 02:19:57;;;;;;;6.45;2.65;;;5.50;44.40;;;;;;5095406;28;20313;-48
2022/01/08 02:22:24;;;;;;;4.70;3.63;;;5.60;45.10;;;;;;5096457;28;20171;-49
2022/01/08 02:24:52;;;;;;;3.92;2.63;;;5.60;44.00;;;;;;5095475;28;20182;-48
2022/01/08 02:27:19;;;;;;;4.13;1.73;;;5.70;44.00;;;;;;5095481;28;20156;-47
2022/01/08 02:29:48;;;;;;;2.25;1.30;;;5.70;43.80;;;;;;5095679;28;20168;-48
2022/01/08 02:32:19;;;;;;;2.67;1.98;;;5.70;43.60;;;;;;5095051;28;20177;-48
2022/01/08 02:34:48;;;;;;;2.45;1.50;;;5.70;43.60;;;;;;5095957;28;20191;-49
2022/01/08 02:37:17;;;;;;;2.50;1.60;;;5.60;43.40;;;;;;5096099;28;20601;-47
2022/01/08 02:39:48;;;;;;;1.73;1.38;;;5.60;43.50;;;;;;5095043;28;20171;-48
2022/01/08 02:42:19;;;;;;;5.20;2.88;;;5.60;43.40;;;;;;5062721;28;20179;-47
2022/01/08 02:44:48;;;;;;;1.60;1.25;;;5.60;43.40;;;;;;5094975;28;20178;-48
2022/01/08 02:47:20;;;;;;;1.73;1.13;;;5.50;43.40;;;;;;5094905;28;20216;-48
2022/01/08 02:49:52;;;;;;;2.88;1.25;;;5.60;43.50;;;;;;5095269;28;20589;-48
2022/01/08 02:52:19;;;;;;;2.15;1.60;;;5.50;43.40;;;;;;5094878;28;20262;-48
2022/01/08 02:54:47;;;;;;;3.85;1.63;;;5.40;43.30;;;;;;5095764;28;20200;-49
2022/01/08 02:57:14;;;;;;;2.90;0.93;;;5.40;43.30;;;;;;5095625;28;20197;-48
2022/01/08 02:59:42;;;;;;;4.20;1.48;;;5.40;43.20;;;;;;5094770;28;20164;-48
2022/01/08 03:02:09;;;;;;;3.78;1.10;;;5.30;43.40;;;;;;5095633;28;20191;-48
2022/01/08 03:04:37;;;;;;;2.65;0.95;;;5.20;43.40;;;;;;5095484;28;20620;-48
2022/01/08 03:07:04;;;;;;;4.90;2.53;;;5.20;43.60;;;;;;5095657;28;20163;-48
2022/01/08 03:09:35;;;;;;;1.80;1.25;;;5.20;43.60;;;;;;5077832;28;20243;-49
2022/01/08 03:12:04;;;;;;;1.55;1.17;;;5.20;43.50;;;;;;5078236;28;20164;-48
2022/01/08 03:14:31;;;;;;;3.90;1.38;;;5.20;43.40;;;;;;5095417;28;20191;-47
2022/01/08 03:16:58;;;;;;;2.58;1.52;;;5.20;43.50;;;;;;5094550;28;20248;-47
2022/01/08 03:19:25;;;;;;;1.98;1.70;;;5.20;43.50;;;;;;5095284;28;20168;-48
2022/01/08 03:21:54;;;;;;;2.38;1.30;;;5.20;43.50;;;;;;5094348;28;20171;-48
2022/01/08 03:24:27;;;;;;;3.60;1.98;;;5.20;43.50;;;;;;5094639;28;20274;-47
2022/01/08 03:26:56;;;;;;;1.98;1.10;;;5.10;43.60;;;;;;5095066;28;20255;-49
2022/01/08 03:29:24;;;;;;;5.25;1.45;;;5.10;44.10;;;;;;5095117;28;20164;-49
2022/01/08 03:31:51;;;;;;;2.58;1.60;;;5.10;43.90;;;;;;5095186;28;20156;-49
2022/01/08 03:34:19;;;;;;;2.38;1.38;;;5.10;43.90;;;;;;5095222;28;20199;-47
2022/01/08 03:36:46;;;;;;;3.88;3.33;;;5.10;43.90;;;;;;5094133;28;20174;-48
2022/01/08 03:39:14;;;;;;;3.65;1.17;;;5.10;43.80;;;;;;5095054;28;20190;-48
2022/01/08 03:41:42;;;;;;;2.15;1.80;;;5.20;43.80;;;;;;5094922;28;20156;-47
2022/01/08 03:44:10;;;;;;;2.35;1.10;;;5.20;43.80;;;;;;5095102;28;20164;-48
2022/01/08 03:46:38;;;;;;;1.80;1.05;;;5.20;43.50;;;;;;5094125;28;20660;-47
2022/01/08 03:51:35;;;;;;;4.28;2.45;;;5.10;43.70;;;;;;5094033;28;20167;-48
2022/01/08 03:54:02;;;;;;;5.20;1.85;;;5.10;43.70;;;;;;5094827;28;20184;-48
2022/01/08 03:56:30;;;;;;;1.52;1.05;;;5.10;43.50;;;;;;5077440;28;20213;-47
2022/01/08 03:58:57;;;;;;;2.33;1.13;;;5.00;43.50;;;;;;5093943;28;20174;-47
2022/01/08 04:01:24;;;;;;;3.03;0.93;;;5.00;43.60;;;;;;5093893;28;20608;-48
2022/01/08 04:03:52;;;;;;;4.28;1.52;;;5.10;43.90;;;;;;5094700;28;20168;-47
2022/01/08 04:06:19;;;;;;;1.80;1.55;;;5.10;43.90;;;;;;5060486;28;20168;-48
2022/01/08 04:08:46;;;;;;;1.65;1.20;;;5.10;43.90;;;;;;5095229;28;20463;-48
2022/01/08 04:11:14;;;;;;;2.90;1.58;;;5.20;43.90;;;;;;5094093;28;20164;-49
2022/01/08 04:13:42;;;;;;;5.88;3.20;;;5.20;43.90;;;;;;5093698;28;20202;-47
2022/01/08 04:16:17;;;;;;;2.80;1.88;;;5.20;43.90;;;;;;5094501;28;20247;-47
2022/01/08 04:18:45;;;;;;;3.75;2.03;;;5.20;43.90;;;;;;5093687;28;20168;-47
2022/01/08 04:24:01;;;;;;;1.85;1.63;;;5.30;44.10;;;;;;5093871;28;20186;-47
2022/01/08 04:26:29;;;;;;;1.30;0.75;;;5.30;44.00;;;;;;5094207;28;20601;-48
2022/01/08 04:28:56;;;;;;;4.78;2.05;;;5.30;44.20;;;;;;5077001;28;20172;-48
2022/01/08 04:31:26;;;;;;;2.15;1.70;;;5.30;44.20;;;;;;5093581;28;20167;-47
2022/01/08 04:33:54;;;;;;;2.75;1.42;;;5.40;44.20;;;;;;5094358;28;20161;-49
2022/01/08 04:36:21;;;;;;;2.85;0.88;;;5.40;44.20;;;;;;5096867;28;20501;-48
2022/01/08 04:38:49;;;;;;;1.60;1.35;;;5.50;44.40;;;;;;5080900;28;20165;-48
2022/01/08 04:41:17;;;;;;;3.15;1.25;;;5.50;44.60;;;;;;5097384;28;20164;-47
2022/01/08 04:43:44;;;;;;;2.60;1.42;;;5.60;44.40;;;;;;5098680;28;20187;-47
2022/01/08 04:46:12;;;;;;;1.45;1.15;;;5.70;44.30;;;;;;5063387;28;20741;-47
2022/01/08 04:48:40;;;;;;;1.60;1.10;;;5.80;44.10;;;;;;5097638;28;20477;-47
2022/01/08 04:51:08;;;;;;;2.03;1.20;;;5.90;44.20;;;;;;5098250;28;20242;-47
2022/01/08 04:53:35;;;;;;;3.95;2.53;;;5.90;44.20;;;;;;5080647;28;20156;-48
2022/01/08 04:56:03;;;;;;;4.47;2.85;;;5.80;44.00;;;;;;5098127;28;20159;-47
2022/01/08 04:58:30;;;;;;;3.90;2.15;;;5.80;44.00;;;;;;5097936;28;20171;-48
2022/01/08 05:00:58;;;;;;;4.82;3.30;;;5.80;43.90;;;;;;5097072;28;20217;-48
2022/01/08 05:03:26;;;;;;;3.28;2.33;;;5.80;43.90;;;;;;5097909;28;20250;-48
2022/01/08 05:05:53;;;;;;;1.83;1.30;;;5.80;43.90;;;;;;5097086;28;20156;-48
2022/01/08 05:08:20;;;;;;;3.42;1.67;;;5.80;43.90;;;;;;5096692;28;20289;-47
2022/01/08 05:10:47;;;;;;;2.42;1.35;;;5.80;43.90;;;;;;5097882;28;20175;-47
2022/01/08 05:13:15;;;;;;;4.38;2.17;;;5.80;43.90;;;;;;5097873;28;20178;-47
2022/01/08 05:15:42;;;;;;;4.45;1.50;;;5.80;43.80;;;;;;5096786;28;20187;-47
2022/01/08 05:18:10;;;;;;;5.28;3.20;;;5.90;43.80;;;;;;5097650;28;20247;-48
2022/01/08 05:20:40;;;;;;;1.98;1.50;;;5.90;43.80;;;;;;5097430;28;20177;-48
2022/01/08 05:23:08;;;;;;;2.80;1.63;;;5.90;43.80;;;;;;5096642;28;20258;-48
2022/01/08 05:25:35;;;;;;;3.10;1.58;;;5.90;43.80;;;;;;5096759;28;20159;-49
2022/01/08 05:28:03;;;;;;;2.97;1.60;;;5.80;43.70;;;;;;5097031;28;20187;-48
2022/01/08 05:30:31;;;;;;;2.92;1.90;;;5.90;43.90;;;;;;5097283;28;20221;-48
2022/01/08 05:32:58;;;;;;;5.38;2.05;;;5.80;43.70;;;;;;5096604;28;20501;-47
2022/01/08 05:35:30;;;;;;;2.47;1.85;;;5.80;43.60;;;;;;5096440;28;20191;-48
2022/01/08 05:37:57;;;;;;;2.95;1.90;;;5.80;43.60;;;;;;5079631;28;20226;-47
2022/01/08 05:40:25;;;;;;;3.55;2.35;;;5.80;43.70;;;;;;5096291;28;20554;-48
2022/01/08 05:42:52;;;;;;;4.35;2.15;;;5.80;43.70;;;;;;5097396;28;20173;-48
2022/01/08 05:45:20;;;;;;;3.17;1.30;;;5.80;43.70;;;;;;5096249;28;20170;-48
2022/01/08 05:47:48;;;;;;;3.00;2.10;;;5.80;43.80;;;;;;5096268;28;20216;-48
2022/01/08 05:50:16;;;;;;;3.90;2.15;;;5.80;43.70;;;;;;5097139;28;20171;-48
2022/01/08 05:52:43;;;;;;;2.95;2.17;;;5.80;43.70;;;;;;5096810;28;20168;-47
2022/01/08 05:55:11;;;;;;;5.53;2.25;;;5.90;43.70;;;;;;5096037;28;20183;-48
2022/01/08 05:57:39;;;;;;;2.33;1.25;;;5.90;43.70;;;;;;5096048;28;20164;-48
2022/01/08 06:00:07;;;;;;;3.40;2.40;;;5.90;43.60;;;;;;5096672;28;20164;-48
2022/01/08 06:02:35;;;;;;;3.45;2.35;;;5.90;43.60;;;;;;5095968;28;20156;-47
2022/01/08 06:05:03;;;;;;;5.35;2.40;;;5.90;43.50;;;;;;5095886;28;20172;-48
2022/01/08 06:07:31;;;;;;;4.57;2.58;;;5.90;43.50;;;;;;5096566;28;20480;-48
2022/01/08 06:09:58;;;;;;;3.95;2.28;;;5.90;43.30;;;;;;5095800;28;20164;-47
2022/01/08 06:12:25;;;;;;;3.38;1.67;;;5.90;43.40;;;;;;5096561;28;20495;-47
2022/01/08 06:14:53;;;;;;;4.57;3.33;;;5.90;43.30;;;;;;5096439;28;20574;-48
2022/01/08 06:17:20;;;;;;;2.53;1.58;;;5.90;43.20;;;;;;5096360;28;20160;-48
2022/01/08 06:19:48;;;;;;;3.60;2.22;;;5.90;43.20;;;;;;5095404;28;20175;-48
2022/01/08 06:22:16;;;;;;;1.60;0.90;;;5.90;43.20;;;;;;5095743;28;20152;-48
2022/01/08 06:24:44;;;;;;;4.32;2.20;;;5.90;43.20;;;;;;5096249;28;20168;-47
2022/01/08 06:27:11;;;;;;;4.03;1.58;;;5.80;43.10;;;;;;5096326;28;20251;-48
2022/01/08 06:29:39;;;;;;;2.15;1.30;;;5.80;43.00;;;;;;5095474;28;20172;-47
2022/01/08 06:32:06;;;;;;;1.75;0.98;;;5.80;43.10;;;;;;5096091;28;20248;-49
2022/01/08 06:34:34;;;;;;;2.72;1.88;;;5.80;43.10;;;;;;5095549;28;20267;-47
2022/01/08 06:37:01;;;;;;;3.92;1.80;;;5.90;43.20;;;;;;5095967;28;20152;-47
2022/01/08 06:39:29;;;;;;;5.20;2.22;;;5.90;43.20;;;;;;5095880;28;20613;-48
2022/01/08 06:41:57;;;;;;;5.47;2.83;;;5.90;43.20;;;;;;5078505;28;20657;-48
2022/01/08 06:44:24;;;;;;;5.85;2.58;;;5.90;43.20;;;;;;5096270;28;20247;-48
2022/01/08 06:46:51;;;;;;;4.13;2.28;;;5.90;43.20;;;;;;5094780;28;20569;-48
2022/01/08 06:49:19;;;;;;;2.13;1.48;;;5.90;43.20;;;;;;5078168;28;20164;-48
2022/01/08 06:51:46;;;;;;;3.10;1.90;;;5.90;43.30;;;;;;5095771;28;20236;-48
2022/01/08 06:54:14;;;;;;;5.88;3.58;;;5.90;43.20;;;;;;5094871;28;20184;-48
2022/01/08 06:56:41;;;;;;;2.25;2.03;;;5.90;43.30;;;;;;5095611;28;20156;-47
2022/01/08 06:59:08;;;;;;;9.15;2.80;;;5.90;43.20;;;;;;5095088;28;20168;-48
2022/01/08 07:01:36;;;;;;;3.65;2.13;;;6.00;43.20;;;;;;5095512;28;20167;-48
2022/01/08 07:04:04;;;;;;;7.35;3.53;;;6.00;43.30;;;;;;5095548;28;20167;-47
2022/01/08 07:06:31;;;;;;;6.18;3.03;;;6.00;43.20;;;;;;5095541;28;20156;-48
2022/01/08 07:08:59;;;;;;;4.15;2.30;;;6.10;43.30;;;;;;5095573;28;20199;-48
2022/01/08 07:11:26;;;;;;;5.68;4.07;;;6.10;43.20;;;;;;5095456;28;20167;-49
2022/01/08 07:13:54;;;;;;;5.13;3.05;;;6.10;43.30;;;;;;5095500;28;20238;-47
2022/01/08 07:16:21;;;;;;;4.32;3.40;;;6.10;43.20;;;;;;5095704;28;20605;-47
2022/01/08 07:18:49;;;;;;;8.45;3.35;;;6.10;43.20;;;;;;5095171;28;20160;-49
2022/01/08 07:21:16;;;;;;;6.40;2.60;;;6.20;43.20;;;;;;5095274;28;20170;-48
2022/01/08 07:23:43;;;;;;;5.63;2.85;;;6.10;43.10;;;;;;5095319;28;20601;-49
2022/01/08 07:26:11;;;;;;;4.38;3.92;;;6.20;43.10;;;;;;5095199;28;20164;-49
2022/01/08 07:28:40;;;;;;;3.58;2.42;;;6.20;43.20;;;;;;5094424;28;20160;-49
2022/01/08 07:31:08;;;;;;;5.13;2.03;;;6.10;43.10;;;;;;5094051;28;20172;-48
2022/01/08 07:33:35;;;;;;;2.50;2.10;;;6.20;43.10;;;;;;5094121;28;20509;-48
2022/01/08 07:36:03;;;;;;;4.18;2.00;;;6.20;43.10;;;;;;5094052;28;20240;-47
2022/01/08 07:38:30;;;;;;;5.72;2.83;;;6.30;43.20;;;;;;5094374;28;20183;-47
2022/01/08 07:40:57;;;;;;;7.22;3.88;;;6.30;43.20;;;;;;5077683;28;20164;-47
2022/01/08 07:43:24;;;;;;;4.32;2.75;;;6.20;43.20;;;;;;5094810;28;20489;-48
2022/01/08 07:45:52;;;;;;;3.97;3.30;;;6.30;43.20;;;;;;5094905;28;20168;-48
2022/01/08 07:48:19;;;;;;;5.45;2.40;;;6.30;43.30;;;;;;5094800;28;20215;-49
2022/01/08 07:50:47;;;;;;;6.90;2.50;;;6.30;43.20;;;;;;5094891;28;20168;-48
2022/01/08 07:53:14;;;;;;;4.68;4.15;;;6.30;43.10;;;;;;5093906;28;20171;-49
2022/01/08 07:55:42;;;;;;;4.68;3.55;;;6.30;43.10;;;;;;5094610;28;20187;-48
2022/01/08 07:58:09;;;;;;;3.70;2.25;;;6.40;43.10;;;;;;5094706;28;20152;-48
2022/01/08 08:00:36;;;;;;;3.20;2.35;;;6.40;43.10;;;;;;5095014;28;20171;-47
2022/01/08 08:03:04;;;;;;;3.72;1.52;;;6.40;43.10;;;;;;5094866;28;20165;-49
2022/01/08 08:05:31;;;;;;;4.70;2.70;;;6.50;43.10;;;;;;5094983;28;20164;-48
2022/01/08 08:07:59;;;;;;;2.40;2.00;;;6.50;43.10;;;;;;5094273;28;20203;-48
2022/01/08 08:10:27;;;;;;;3.28;1.90;;;6.50;43.20;;;;;;5097161;28;20251;-49
2022/01/08 08:12:56;;;;;;;4.75;3.30;;;6.50;43.20;;;;;;5098951;28;20176;-48
2022/01/08 08:15:23;;;;;;;5.75;2.47;;;6.50;43.40;;;;;;5097737;28;20192;-48
2022/01/08 08:17:51;;;;;;;4.43;2.28;;;6.50;43.60;;;;;;5098063;28;20168;-47
2022/01/08 08:20:18;;;;;;;4.50;2.97;;;6.50;43.70;;;;;;5098557;28;20168;-48
2022/01/08 08:22:46;;;;;;;4.40;2.58;;;6.50;43.70;;;;;;5098655;28;20156;-48
2022/01/08 08:25:13;;;;;;;7.18;2.97;;;6.60;43.70;;;;;;5098477;28;20175;-49
2022/01/08 08:27:41;;;;;;;4.20;2.55;;;6.60;43.80;;;;;;5097630;28;20218;-48
2022/01/08 08:30:10;;;;;;;10.38;2.45;;;6.60;43.80;;;;;;5098648;28;20474;-48
2022/01/08 08:32:38;;;;;;;4.90;2.72;;;6.60;43.90;;;;;;5098441;28;20205;-48
2022/01/08 08:35:06;;;;;;;3.58;2.03;;;6.60;44.00;;;;;;5097614;28;20550;-48
2022/01/08 08:37:35;;;;;;;2.75;1.65;;;6.60;44.00;;;;;;5098496;28;20157;-47
2022/01/08 08:40:04;;;;;;;5.47;2.05;;;6.60;44.10;;;;;;5098240;28;20171;-48
2022/01/08 08:42:32;;;;;;;6.97;2.78;;;6.60;44.10;;;;;;5098205;28;20168;-48
2022/01/08 08:45:00;;;;;;;5.80;3.10;;;6.60;44.60;;;;;;5098257;28;20176;-48
2022/01/08 08:47:27;;;;;;;4.35;2.33;;;6.50;44.70;;;;;;5097773;28;20255;-47
2022/01/08 08:49:55;;;;;;;2.78;1.70;;;6.50;45.00;;;;;;5097220;28;20491;-48
2022/01/08 08:52:25;;;;;;;3.42;1.65;;;6.50;45.00;;;;;;5098095;28;20196;-48
2022/01/08 08:54:53;;;;;;;2.70;2.10;;;6.50;45.40;;;;;;5097841;28;20199;-48
2022/01/08 08:57:21;;;;;;;6.10;3.22;;;6.50;45.50;;;;;;5098005;28;20161;-48
2022/01/08 08:59:48;;;;;;;3.25;2.20;;;6.50;45.70;;;;;;5097135;28;20466;-48
2022/01/08 09:02:15;;;;;;;1.90;1.38;;;6.50;45.60;;;;;;5098637;28;20523;-48
2022/01/08 09:04:43;;;;;;;4.35;1.83;;;6.50;46.20;;;;;;5098029;28;20160;-48
2022/01/08 09:07:10;;;;;;;3.95;1.80;;;6.50;46.10;;;;;;5097912;28;20534;-49
2022/01/08 09:09:38;;;;;;;3.38;2.75;;;6.60;46.20;;;;;;5097711;28;20623;-48
2022/01/08 09:12:05;;;;;;;4.07;1.92;;;6.50;46.50;;;;;;5080240;28;20172;-48
2022/01/08 09:14:33;;;;;;;3.10;2.00;;;6.60;46.70;;;;;;5097469;28;20220;-48
2022/01/08 09:17:04;;;;;;;4.55;2.20;;;6.60;47.10;;;;;;5097725;28;20160;-47
2022/01/08 09:19:32;;;;;;;4.38;2.00;;;6.50;47.00;;;;;;5096511;28;20196;-48
2022/01/08 09:22:04;;;;;;;3.35;2.47;;;6.50;47.00;;;;;;5095814;28;20220;-49
2022/01/08 09:24:33;;;;;;;5.93;2.70;;;6.50;47.60;;;;;;5064210;28;20207;-47
2022/01/08 09:27:00;;;;;;;2.30;1.33;;;6.50;48.20;;;;;;5096445;28;20196;-48
2022/01/08 09:29:27;;;;;;;6.57;2.47;;;6.60;47.20;;;;;;5097190;28;20168;-48
2022/01/08 09:31:56;;;;;;;4.05;2.05;;;6.60;47.60;;;;;;5097195;28;20200;-47
2022/01/08 09:34:23;;;;;;;2.00;1.35;;;6.60;48.10;;;;;;5079867;28;20260;-47
2022/01/08 09:36:50;;;;;;;2.40;1.92;;;6.60;47.70;;;;;;5096288;28;20162;-47
2022/01/08 09:39:18;;;;;;;6.32;1.90;;;6.60;47.60;;;;;;5096342;28;20172;-48
2022/01/08 09:41:45;;;;;;;3.38;1.75;;;6.60;47.70;;;;;;5096204;28;20174;-47
2022/01/08 09:44:13;;;;;;;3.88;2.25;;;6.60;47.80;;;;;;5097009;28;20493;-48
2022/01/08 09:46:41;;;;;;;1.67;1.45;;;6.60;47.80;;;;;;5079006;28;20211;-48
2022/01/08 09:49:09;;;;;;;1.90;1.50;;;6.60;47.90;;;;;;5079564;28;20202;-47
2022/01/08 09:51:37;;;;;;;4.50;2.22;;;6.60;47.60;;;;;;5095948;28;20172;-48
2022/01/08 09:54:05;;;;;;;2.78;2.00;;;6.70;47.80;;;;;;5095900;28;20179;-47
2022/01/08 09:56:33;;;;;;;2.67;1.38;;;6.70;47.90;;;;;;5095883;28;20156;-48
2022/01/08 09:59:02;;;;;;;3.70;2.58;;;6.70;48.20;;;;;;5096784;28;20601;-47
2022/01/08 10:01:34;;;;;;;5.70;2.30;;;6.70;47.80;;;;;;5095701;28;20176;-48
2022/01/08 10:04:04;;;;;;;4.68;3.47;;;6.70;48.30;;;;;;5079281;28;20210;-48
2022/01/08 10:06:34;;;;;;;4.20;2.67;;;6.70;48.30;;;;;;5095786;28;20225;-48
2022/01/08 10:09:02;;;;;;;3.38;2.38;;;6.70;48.40;;;;;;5096680;28;20179;-48
2022/01/08 10:11:29;;;;;;;3.60;2.05;;;6.70;48.70;;;;;;5096417;28;20517;-48
2022/01/08 10:14:05;;;;;;;4.68;2.55;;;6.80;48.60;;;;;;5096451;28;20489;-48
2022/01/08 10:19:23;;;;;;;4.00;3.35;;;6.80;48.90;;;;;;5095847;28;20496;-48
2022/01/08 10:21:52;;;;;;;3.60;2.08;;;6.90;48.90;;;;;;5096213;28;20152;-48
2022/01/08 10:24:29;;;;;;;6.25;3.92;;;7.00;48.80;;;;;;5095174;28;20490;-48
2022/01/08 10:27:05;;;;;;;3.13;1.90;;;7.00;48.80;;;;;;5096439;28;20263;-48
2022/01/08 10:29:33;;;;;;;17.80;3.58;;;7.00;48.90;;;;;;5096126;28;20186;-48
2022/01/08 10:32:02;;;;;;;5.80;3.20;;;7.00;49.20;;;;;;5096211;28;20167;-48
2022/01/08 10:34:31;;;;;;;7.35;2.38;;;6.90;49.10;;;;;;5094169;28;20196;-48
2022/01/08 10:37:05;;;;;;;7.88;4.40;;;6.90;49.10;;;;;;5096214;28;20168;-48
2022/01/08 10:39:38;;;;;;;7.10;3.35;;;7.00;49.00;;;;;;5095998;28;20154;-48
2022/01/08 10:42:18;;;;;;;5.00;3.92;;;7.00;49.10;;;;;;5095946;28;20145;-47
2022/01/08 10:44:50;;;;;;;4.28;2.95;;;7.00;49.20;;;;;;5078369;28;20170;-48
2022/01/08 10:47:19;;;;;;;8.70;3.90;;;7.00;49.20;;;;;;5078476;28;20215;-48
2022/01/08 10:50:06;;;;;;;3.15;1.98;;;7.00;49.30;;;;;;5095787;28;20250;-48
2022/01/08 10:52:48;;;;;;;4.70;2.58;;;7.00;49.10;;;;;;5095957;28;20221;-49
2022/01/08 10:55:30;;;;;;;6.93;2.88;;;7.00;49.20;;;;;;5062604;28;20203;-48
2022/01/08 10:57:58;;;;;;;3.70;2.45;;;7.00;49.20;;;;;;5095840;28;20237;-48
2022/01/08 11:00:32;;;;;;;10.80;6.10;;;7.10;49.30;;;;;;5078220;28;20168;-48
2022/01/08 11:03:00;;;;;;;7.75;3.15;;;7.10;49.00;;;;;;5094601;28;20159;-48
2022/01/08 11:05:28;;;;;;;3.00;2.67;;;7.10;49.10;;;;;;5094586;28;20176;-47
2022/01/08 11:08:13;;;;;;;5.63;3.40;;;7.10;49.00;;;;;;5094617;28;20175;-48
2022/01/08 11:10:42;;;;;;;7.47;3.38;;;7.00;49.20;;;;;;5094881;28;20239;-48
2022/01/08 11:13:16;;;;;;;7.97;4.80;;;6.90;49.20;;;;;;5095293;28;20556;-48
2022/01/08 11:15:51;;;;;;;4.63;3.63;;;6.90;49.40;;;;;;5095368;28;20203;-47
2022/01/08 11:18:24;;;;;;;4.70;3.25;;;7.00;49.20;;;;;;5095353;28;20145;-48
2022/01/08 11:20:53;;;;;;;5.15;2.55;;;7.00;49.20;;;;;;5095408;28;20240;-48
2022/01/08 11:23:25;;;;;;;7.22;3.30;;;7.00;49.00;;;;;;5094364;28;20167;-49
2022/01/08 11:25:55;;;;;;;3.92;3.55;;;7.00;48.90;;;;;;5094189;28;20605;-48
2022/01/08 11:28:34;;;;;;;5.43;3.72;;;7.00;48.70;;;;;;5094259;28;20669;-48
2022/01/08 11:31:03;;;;;;;5.25;3.88;;;7.00;48.70;;;;;;5094290;28;20184;-49
2022/01/08 11:33:35;;;;;;;8.82;3.25;;;7.00;49.00;;;;;;5095196;28;20250;-48
2022/01/08 11:36:03;;;;;;;5.50;3.90;;;7.00;48.80;;;;;;5077990;28;20598;-48
2022/01/08 11:38:31;;;;;;;6.03;3.22;;;7.00;48.60;;;;;;5094270;28;20163;-48
2022/01/08 11:40:59;;;;;;;7.03;4.25;;;7.00;48.60;;;;;;5060826;28;20505;-48
2022/01/08 11:43:29;;;;;;;12.23;3.42;;;7.00;48.80;;;;;;5077423;28;20155;-48
2022/01/08 11:46:07;;;;;;;4.78;2.72;;;7.00;48.90;;;;;;5094169;28;20527;-48
2022/01/08 11:48:43;;;;;;;4.07;3.40;;;6.90;48.80;;;;;;5094519;28;20211;-48
2022/01/08 11:51:19;;;;;;;6.07;3.00;;;6.90;48.90;;;;;;5094382;28;20229;-48
2022/01/08 11:53:55;;;;;;;4.20;3.30;;;6.90;48.80;;;;;;5094261;28;20171;-48
2022/01/08 11:56:29;;;;;;;6.10;3.88;;;6.90;49.10;;;;;;5094184;28;20182;-48
2022/01/08 11:59:16;;;;;;;11.80;4.47;;;6.80;48.90;;;;;;5093965;28;20164;-48
2022/01/08 12:02:03;;;;;;;5.70;4.35;;;6.80;48.70;;;;;;5093979;28;20156;-48
2022/01/08 12:04:35;;;;;;;5.78;3.85;;;6.80;49.10;;;;;;5095035;28;20641;-48
2022/01/08 12:07:35;;;;;;;3.83;2.75;;;6.70;49.10;;;;;;5094846;28;20167;-48
2022/01/08 12:10:21;;;;;;;4.60;3.13;;;6.70;49.00;;;;;;5094817;28;20168;-48
2022/01/08 12:13:00;;;;;;;7.40;3.42;;;6.60;49.00;;;;;;5093606;28;20236;-48
2022/01/08 12:15:45;;;;;;;7.10;2.72;;;6.60;48.90;;;;;;5093909;28;20202;-48
2022/01/08 12:18:20;;;;;;;2.70;2.10;;;6.60;49.00;;;;;;5093435;28;20232;-48
2022/01/08 12:20:56;;;;;;;5.35;2.45;;;6.60;49.10;;;;;;5093952;28;20166;-48
2022/01/08 12:23:44;;;;;;;4.40;2.75;;;6.60;48.90;;;;;;5077404;28;20160;-47
2022/01/08 12:26:23;;;;;;;7.55;3.83;;;6.50;48.90;;;;;;5094435;28;20168;-47
2022/01/08 12:29:00;;;;;;;3.78;2.85;;;6.60;48.80;;;;;;5094543;28;20175;-48
2022/01/08 12:31:44;;;;;;;7.53;3.13;;;6.60;48.80;;;;;;5094715;28;20225;-47
2022/01/08 12:34:31;;;;;;;6.63;2.40;;;6.60;48.70;;;;;;5093372;28;20240;-48
2022/01/08 12:37:04;;;;;;;7.03;3.38;;;6.60;48.50;;;;;;5093348;28;20175;-48
2022/01/08 12:39:44;;;;;;;9.48;6.03;;;6.60;48.50;;;;;;5093635;28;20611;-48
2022/01/08 12:42:20;;;;;;;4.47;3.00;;;6.60;48.50;;;;;;5093417;28;20184;-48
2022/01/08 12:45:12;;;;;;;8.98;3.17;;;6.60;48.40;;;;;;5094373;28;20164;-48
2022/01/08 12:47:42;;;;;;;6.07;3.30;;;6.70;48.40;;;;;;5094107;28;20204;-48
2022/01/08 12:50:26;;;;;;;5.82;1.92;;;6.70;48.40;;;;;;5093954;28;20547;-48
2022/01/08 12:53:09;;;;;;;11.00;4.25;;;6.70;48.20;;;;;;5094419;28;20174;-49
2022/01/08 12:55:38;;;;;;;6.97;4.20;;;6.70;48.20;;;;;;5094419;28;20610;-48
2022/01/08 12:58:20;;;;;;;5.53;3.30;;;6.70;48.20;;;;;;5097304;28;20196;-48
2022/01/08 13:01:06;;;;;;;7.53;4.32;;;6.80;48.10;;;;;;5097262;28;20639;-47
2022/01/08 13:03:36;;;;;;;5.50;3.45;;;6.70;48.10;;;;;;5098014;28;20589;-48
2022/01/08 13:06:24;;;;;;;4.38;3.40;;;6.70;48.10;;;;;;5096885;28;20259;-48
2022/01/08 13:08:54;;;;;;;6.28;4.07;;;6.70;48.10;;;;;;5096851;28;20148;-48
2022/01/08 13:11:26;;;;;;;7.25;4.55;;;6.70;48.20;;;;;;5096980;28;20160;-49
2022/01/08 13:14:00;;;;;;;6.28;3.65;;;6.60;48.10;;;;;;5096918;28;20239;-48
2022/01/08 13:16:43;;;;;;;5.18;3.63;;;6.60;48.20;;;;;;5097445;28;20543;-48
2022/01/08 13:19:25;;;;;;;6.13;4.55;;;6.60;48.30;;;;;;5080368;28;20168;-48
2022/01/08 13:21:55;;;;;;;6.72;4.07;;;6.60;48.40;;;;;;5081152;28;20167;-48
2022/01/08 13:24:24;;;;;;;4.85;3.25;;;6.60;48.60;;;;;;5079848;28;20175;-48
2022/01/08 13:26:59;;;;;;;9.48;5.88;;;6.60;48.60;;;;;;5097579;28;20547;-48
2022/01/08 13:29:29;;;;;;;7.50;4.45;;;6.60;48.40;;;;;;5097446;28;20171;-49
2022/01/08 13:31:59;;;;;;;11.15;4.88;;;6.70;48.50;;;;;;5097235;28;20170;-48